sensor_id;sensor_type;location;lat;lon;timestamp;pressure;altitude;pressure_sealevel;temperature;humidity
76694;BME280;69667;52.136;5.424;2023-12-22T00:01:00;100289.88;;;5.54;100.00
76694;BME280;69667;52.136;5.424;2023-12-22T00:03:28;100307.75;;;5.53;100.00
76694;BME280;69667;52.136;5.424;2023-12-22T00:05:56;100302.50;;;5.52;100.00
76694;BME280;69667;52.136;5.424;2023-12-22T00:08:25;100320.66;;;5.47;100.00
76694;BME280;69667;52.136;5.424;2023-12-22T00:10:53;100330.22;;;5.37;100.00
76694;BME280;69667;52.136;5.424;2023-12-22T00:13:21;100358.41;;;5.28;100.00
76694;BME280;69667;52.136;5.424;2023-12-22T00:15:50;100347.31;;;5.20;100.00
76694;BME280;69667;52.136;5.424;2023-12-22T00:18:18;100348.44;;;5.16;100.00
76694;BME280;69667;52.136;5.424;2023-12-22T00:20:46;100347.13;;;5.09;100.00
76694;BME280;69667;52.136;5.424;2023-12-22T00:23:14;100349.13;;;5.05;100.00
76694;BME280;69667;52.136;5.424;2023-12-22T00:25:43;100355.69;;;5.00;100.00
76694;BME280;69667;52.136;5.424;2023-12-22T00:28:11;100330.34;;;4.91;100.00
76694;BME280;69667;52.136;5.424;2023-12-22T00:30:39;100344.84;;;4.87;100.00
76694;BME280;69667;52.136;5.424;2023-12-22T00:33:08;100335.22;;;4.85;100.00
76694;BME280;69667;52.136;5.424;2023-12-22T00:35:36;100354.13;;;4.82;100.00
76694;BME280;69667;52.136;5.424;2023-12-22T00:38:05;100360.41;;;4.81;100.00
76694;BME280;69667;52.136;5.424;2023-12-22T00:40:33;100350.66;;;4.80;100.00
76694;BME280;69667;52.136;5.424;2023-12-22T00:43:02;100333.84;;;4.78;100.00
76694;BME280;69667;52.136;5.424;2023-12-22T00:45:30;100335.84;;;4.74;100.00
76694;BME280;69667;52.136;5.424;2023-12-22T00:47:58;100340.34;;;4.74;100.00
76694;BME280;69667;52.136;5.424;2023-12-22T00:50:27;100338.41;;;4.76;100.00
76694;BME280;69667;52.136;5.424;2023-12-22T00:52:55;100338.25;;;4.79;100.00
76694;BME280;69667;52.136;5.424;2023-12-22T00:55:23;100357.03;;;4.77;100.00
76694;BME280;69667;52.136;5.424;2023-12-22T00:57:52;100366.31;;;4.72;100.00
76694;BME280;69667;52.136;5.424;2023-12-22T01:00:20;100371.16;;;4.65;100.00
76694;BME280;69667;52.136;5.424;2023-12-22T01:02:48;100368.56;;;4.64;100.00
76694;BME280;69667;52.136;5.424;2023-12-22T01:05:17;100366.50;;;4.69;100.00
76694;BME280;69667;52.136;5.424;2023-12-22T01:07:45;100371.66;;;4.72;100.00
76694;BME280;69667;52.136;5.424;2023-12-22T01:10:14;100376.63;;;4.78;100.00
76694;BME280;69667;52.136;5.424;2023-12-22T01:12:42;100385.31;;;4.81;100.00
76694;BME280;69667;52.136;5.424;2023-12-22T01:15:10;100378.00;;;4.85;100.00
76694;BME280;69667;52.136;5.424;2023-12-22T01:17:39;100385.72;;;4.89;100.00
76694;BME280;69667;52.136;5.424;2023-12-22T01:20:07;100385.53;;;4.92;100.00
76694;BME280;69667;52.136;5.424;2023-12-22T01:22:35;100383.53;;;4.96;100.00
76694;BME280;69667;52.136;5.424;2023-12-22T01:25:06;100386.22;;;4.96;100.00
76694;BME280;69667;52.136;5.424;2023-12-22T01:27:34;100368.38;;;4.96;100.00
76694;BME280;69667;52.136;5.424;2023-12-22T01:30:03;100391.47;;;4.97;100.00
76694;BME280;69667;52.136;5.424;2023-12-22T01:32:31;100381.94;;;4.93;100.00
76694;BME280;69667;52.136;5.424;2023-12-22T01:35:03;100374.00;;;4.92;100.00
76694;BME280;69667;52.136;5.424;2023-12-22T01:37:36;100386.78;;;4.87;100.00
76694;BME280;69667;52.136;5.424;2023-12-22T01:40:05;100380.06;;;4.80;100.00
76694;BME280;69667;52.136;5.424;2023-12-22T01:42:34;100376.03;;;4.73;100.00
76694;BME280;69667;52.136;5.424;2023-12-22T01:45:02;100373.44;;;4.71;100.00
76694;BME280;69667;52.136;5.424;2023-12-22T01:47:30;100367.41;;;4.68;100.00
76694;BME280;69667;52.136;5.424;2023-12-22T01:49:59;100362.44;;;4.62;100.00
76694;BME280;69667;52.136;5.424;2023-12-22T01:52:28;100362.88;;;4.54;100.00
76694;BME280;69667;52.136;5.424;2023-12-22T01:54:57;100356.94;;;4.49;100.00
76694;BME280;69667;52.136;5.424;2023-12-22T01:57:25;100372.22;;;4.47;100.00
76694;BME280;69667;52.136;5.424;2023-12-22T01:59:53;100383.06;;;4.44;100.00
76694;BME280;69667;52.136;5.424;2023-12-22T02:02:22;100395.31;;;4.48;100.00
76694;BME280;69667;52.136;5.424;2023-12-22T02:04:50;100387.28;;;4.48;100.00
76694;BME280;69667;52.136;5.424;2023-12-22T02:07:19;100374.03;;;4.47;100.00
76694;BME280;69667;52.136;5.424;2023-12-22T02:09:47;100374.72;;;4.50;100.00
76694;BME280;69667;52.136;5.424;2023-12-22T02:12:16;100368.13;;;4.56;100.00
76694;BME280;69667;52.136;5.424;2023-12-22T02:14:44;100375.81;;;4.62;100.00
76694;BME280;69667;52.136;5.424;2023-12-22T02:17:32;100369.91;;;4.71;100.00
76694;BME280;69667;52.136;5.424;2023-12-22T02:20:01;100366.13;;;4.75;100.00
76694;BME280;69667;52.136;5.424;2023-12-22T02:22:29;100358.97;;;4.75;100.00
76694;BME280;69667;52.136;5.424;2023-12-22T02:24:58;100350.84;;;4.77;100.00
76694;BME280;69667;52.136;5.424;2023-12-22T02:27:48;100349.13;;;4.76;100.00
76694;BME280;69667;52.136;5.424;2023-12-22T02:30:47;100340.25;;;4.75;100.00
76694;BME280;69667;52.136;5.424;2023-12-22T02:33:17;100347.59;;;4.72;100.00
76694;BME280;69667;52.136;5.424;2023-12-22T02:35:49;100346.81;;;4.70;100.00
76694;BME280;69667;52.136;5.424;2023-12-22T02:38:19;100343.28;;;4.69;100.00
76694;BME280;69667;52.136;5.424;2023-12-22T02:40:48;100341.97;;;4.76;100.00
76694;BME280;69667;52.136;5.424;2023-12-22T02:43:17;100324.63;;;4.83;100.00
76694;BME280;69667;52.136;5.424;2023-12-22T02:45:45;100313.34;;;4.78;100.00
76694;BME280;69667;52.136;5.424;2023-12-22T02:48:17;100319.22;;;4.69;100.00
76694;BME280;69667;52.136;5.424;2023-12-22T02:50:46;100320.09;;;4.70;100.00
76694;BME280;69667;52.136;5.424;2023-12-22T02:53:14;100315.31;;;4.75;100.00
76694;BME280;69667;52.136;5.424;2023-12-22T02:55:42;100310.94;;;4.74;100.00
76694;BME280;69667;52.136;5.424;2023-12-22T02:58:10;100312.84;;;4.86;100.00
76694;BME280;69667;52.136;5.424;2023-12-22T03:00:39;100318.53;;;4.95;100.00
76694;BME280;69667;52.136;5.424;2023-12-22T03:03:08;100322.53;;;5.02;100.00
76694;BME280;69667;52.136;5.424;2023-12-22T03:05:36;100342.91;;;5.05;100.00
76694;BME280;69667;52.136;5.424;2023-12-22T03:08:04;100336.78;;;5.03;100.00
76694;BME280;69667;52.136;5.424;2023-12-22T03:10:33;100344.59;;;5.06;100.00
76694;BME280;69667;52.136;5.424;2023-12-22T03:13:01;100340.59;;;5.13;100.00
76694;BME280;69667;52.136;5.424;2023-12-22T03:15:29;100345.56;;;5.19;100.00
76694;BME280;69667;52.136;5.424;2023-12-22T03:17:57;100355.91;;;5.25;100.00
76694;BME280;69667;52.136;5.424;2023-12-22T03:20:26;100360.09;;;5.29;100.00
76694;BME280;69667;52.136;5.424;2023-12-22T03:22:54;100359.75;;;5.35;100.00
76694;BME280;69667;52.136;5.424;2023-12-22T03:25:22;100363.94;;;5.39;100.00
76694;BME280;69667;52.136;5.424;2023-12-22T03:27:52;100376.09;;;5.45;100.00
76694;BME280;69667;52.136;5.424;2023-12-22T03:30:20;100360.91;;;5.45;100.00
76694;BME280;69667;52.136;5.424;2023-12-22T03:32:48;100353.53;;;5.49;100.00
76694;BME280;69667;52.136;5.424;2023-12-22T03:35:16;100356.22;;;5.49;100.00
76694;BME280;69667;52.136;5.424;2023-12-22T03:37:45;100391.69;;;5.52;100.00
76694;BME280;69667;52.136;5.424;2023-12-22T03:40:13;100400.28;;;5.57;100.00
76694;BME280;69667;52.136;5.424;2023-12-22T03:42:42;100416.03;;;5.48;100.00
76694;BME280;69667;52.136;5.424;2023-12-22T03:45:10;100424.06;;;5.34;100.00
76694;BME280;69667;52.136;5.424;2023-12-22T03:47:38;100430.25;;;5.20;100.00
76694;BME280;69667;52.136;5.424;2023-12-22T03:50:07;100414.22;;;5.04;100.00
76694;BME280;69667;52.136;5.424;2023-12-22T03:52:36;100403.13;;;4.96;100.00
76694;BME280;69667;52.136;5.424;2023-12-22T03:55:04;100410.56;;;4.91;100.00
76694;BME280;69667;52.136;5.424;2023-12-22T03:57:32;100412.47;;;4.89;100.00
76694;BME280;69667;52.136;5.424;2023-12-22T04:00:01;100409.00;;;4.87;100.00
76694;BME280;69667;52.136;5.424;2023-12-22T04:02:30;100409.00;;;4.87;100.00
76694;BME280;69667;52.136;5.424;2023-12-22T04:04:58;100407.22;;;4.88;100.00
76694;BME280;69667;52.136;5.424;2023-12-22T04:07:26;100406.53;;;4.84;100.00
76694;BME280;69667;52.136;5.424;2023-12-22T04:09:55;100412.84;;;4.83;100.00
76694;BME280;69667;52.136;5.424;2023-12-22T04:12:23;100402.06;;;4.85;100.00
76694;BME280;69667;52.136;5.424;2023-12-22T04:14:51;100409.88;;;4.88;100.00
76694;BME280;69667;52.136;5.424;2023-12-22T04:17:21;100408.97;;;4.89;100.00
76694;BME280;69667;52.136;5.424;2023-12-22T04:19:49;100415.91;;;4.91;100.00
76694;BME280;69667;52.136;5.424;2023-12-22T04:22:17;100412.28;;;4.92;100.00
76694;BME280;69667;52.136;5.424;2023-12-22T04:24:49;100411.44;;;4.92;100.00
76694;BME280;69667;52.136;5.424;2023-12-22T04:27:17;100414.94;;;4.92;100.00
76694;BME280;69667;52.136;5.424;2023-12-22T04:29:45;100414.22;;;4.90;100.00
76694;BME280;69667;52.136;5.424;2023-12-22T04:32:13;100414.44;;;4.86;100.00
76694;BME280;69667;52.136;5.424;2023-12-22T04:34:41;100417.22;;;4.84;100.00
76694;BME280;69667;52.136;5.424;2023-12-22T04:37:10;100412.66;;;4.86;100.00
76694;BME280;69667;52.136;5.424;2023-12-22T04:39:38;100411.63;;;4.89;100.00
76694;BME280;69667;52.136;5.424;2023-12-22T04:42:06;100414.94;;;4.92;100.00
76694;BME280;69667;52.136;5.424;2023-12-22T04:44:34;100423.75;;;4.94;100.00
76694;BME280;69667;52.136;5.424;2023-12-22T04:47:03;100424.63;;;4.95;100.00
76694;BME280;69667;52.136;5.424;2023-12-22T04:49:31;100430.75;;;4.97;100.00
76694;BME280;69667;52.136;5.424;2023-12-22T04:51:59;100425.41;;;4.97;100.00
76694;BME280;69667;52.136;5.424;2023-12-22T04:54:29;100427.88;;;5.00;100.00
76694;BME280;69667;52.136;5.424;2023-12-22T04:56:57;100420.81;;;4.99;100.00
76694;BME280;69667;52.136;5.424;2023-12-22T04:59:25;100417.28;;;4.98;100.00
76694;BME280;69667;52.136;5.424;2023-12-22T05:01:54;100417.38;;;4.97;100.00
76694;BME280;69667;52.136;5.424;2023-12-22T05:04:22;100419.38;;;4.93;100.00
76694;BME280;69667;52.136;5.424;2023-12-22T05:06:50;100425.59;;;4.94;100.00
76694;BME280;69667;52.136;5.424;2023-12-22T05:09:19;100419.38;;;4.93;100.00
76694;BME280;69667;52.136;5.424;2023-12-22T05:11:47;100412.28;;;4.92;100.00
76694;BME280;69667;52.136;5.424;2023-12-22T05:14:15;100409.59;;;4.92;100.00
76694;BME280;69667;52.136;5.424;2023-12-22T05:16:43;100414.94;;;4.92;100.00
76694;BME280;69667;52.136;5.424;2023-12-22T05:19:12;100415.72;;;4.94;100.00
76694;BME280;69667;52.136;5.424;2023-12-22T05:21:40;100402.09;;;4.99;100.00
76694;BME280;69667;52.136;5.424;2023-12-22T05:24:08;100391.03;;;5.05;100.00
76694;BME280;69667;52.136;5.424;2023-12-22T05:26:36;100402.31;;;5.10;100.00
76694;BME280;69667;52.136;5.424;2023-12-22T05:29:05;100393.91;;;5.16;100.00
76694;BME280;69667;52.136;5.424;2023-12-22T05:31:36;100404.41;;;5.19;100.00
76694;BME280;69667;52.136;5.424;2023-12-22T05:34:04;100404.16;;;5.24;100.00
76694;BME280;69667;52.136;5.424;2023-12-22T05:36:32;100395.84;;;5.28;100.00
76694;BME280;69667;52.136;5.424;2023-12-22T05:39:00;100394.53;;;5.35;100.00
76694;BME280;69667;52.136;5.424;2023-12-22T05:41:29;100391.66;;;5.38;100.00
76694;BME280;69667;52.136;5.424;2023-12-22T05:43:57;100388.69;;;5.43;100.00
76694;BME280;69667;52.136;5.424;2023-12-22T05:46:25;100381.16;;;5.49;100.00
76694;BME280;69667;52.136;5.424;2023-12-22T05:48:53;100381.81;;;5.53;100.00
76694;BME280;69667;52.136;5.424;2023-12-22T05:51:26;100372.66;;;5.57;100.00
76694;BME280;69667;52.136;5.424;2023-12-22T05:53:54;100387.66;;;5.59;100.00
76694;BME280;69667;52.136;5.424;2023-12-22T05:56:23;100387.66;;;5.59;100.00
76694;BME280;69667;52.136;5.424;2023-12-22T05:58:51;100395.69;;;5.59;100.00
76694;BME280;69667;52.136;5.424;2023-12-22T06:01:19;100399.91;;;5.63;100.00
76694;BME280;69667;52.136;5.424;2023-12-22T06:03:47;100401.81;;;5.61;100.00
76694;BME280;69667;52.136;5.424;2023-12-22T06:06:16;100398.56;;;5.70;100.00
76694;BME280;69667;52.136;5.424;2023-12-22T06:08:44;100384.97;;;5.73;100.00
76694;BME280;69667;52.136;5.424;2023-12-22T06:11:12;100392.81;;;5.76;100.00
76694;BME280;69667;52.136;5.424;2023-12-22T06:13:40;100377.53;;;5.78;100.00
76694;BME280;69667;52.136;5.424;2023-12-22T06:16:13;100374.75;;;5.80;100.00
76694;BME280;69667;52.136;5.424;2023-12-22T06:18:42;100384.44;;;5.82;100.00
76694;BME280;69667;52.136;5.424;2023-12-22T06:21:10;100371.63;;;5.87;100.00
76694;BME280;69667;52.136;5.424;2023-12-22T06:23:38;100379.16;;;5.95;100.00
76694;BME280;69667;52.136;5.424;2023-12-22T06:26:10;100390.06;;;5.92;100.00
76694;BME280;69667;52.136;5.424;2023-12-22T06:28:39;100388.16;;;5.94;100.00
76694;BME280;69667;52.136;5.424;2023-12-22T06:31:08;100375.44;;;5.97;100.00
76694;BME280;69667;52.136;5.424;2023-12-22T06:33:47;100361.09;;;5.98;100.00
76694;BME280;69667;52.136;5.424;2023-12-22T06:38:48;100378.75;;;6.01;100.00
76694;BME280;69667;52.136;5.424;2023-12-22T06:41:34;100381.16;;;6.05;100.00
76694;BME280;69667;52.136;5.424;2023-12-22T06:44:02;100376.38;;;6.10;100.00
76694;BME280;69667;52.136;5.424;2023-12-22T06:46:31;100377.22;;;6.11;100.00
76694;BME280;69667;52.136;5.424;2023-12-22T06:48:59;100378.84;;;6.13;100.00
76694;BME280;69667;52.136;5.424;2023-12-22T06:51:31;100389.25;;;6.18;100.00
76694;BME280;69667;52.136;5.424;2023-12-22T06:54:04;100377.50;;;6.20;100.00
76694;BME280;69667;52.136;5.424;2023-12-22T06:56:34;100371.84;;;6.25;100.00
76694;BME280;69667;52.136;5.424;2023-12-22T06:59:03;100386.00;;;6.27;100.00
76694;BME280;69667;52.136;5.424;2023-12-22T07:01:35;100379.78;;;6.26;100.00
76694;BME280;69667;52.136;5.424;2023-12-22T07:04:04;100378.16;;;6.24;100.00
76694;BME280;69667;52.136;5.424;2023-12-22T07:06:34;100376.31;;;6.24;100.00
76694;BME280;69667;52.136;5.424;2023-12-22T07:11:41;100378.53;;;6.32;100.00
76694;BME280;69667;52.136;5.424;2023-12-22T07:14:09;100359.44;;;6.36;100.00
76694;BME280;69667;52.136;5.424;2023-12-22T07:16:38;100356.56;;;6.39;100.00
76694;BME280;69667;52.136;5.424;2023-12-22T07:19:07;100367.09;;;6.43;100.00
76694;BME280;69667;52.136;5.424;2023-12-22T07:21:36;100372.25;;;6.46;100.00
76694;BME280;69667;52.136;5.424;2023-12-22T07:24:05;100380.84;;;6.51;100.00
76694;BME280;69667;52.136;5.424;2023-12-22T07:26:33;100385.44;;;6.49;100.00
76694;BME280;69667;52.136;5.424;2023-12-22T07:29:03;100393.28;;;6.52;100.00
76694;BME280;69667;52.136;5.424;2023-12-22T07:31:31;100387.06;;;6.51;100.00
76694;BME280;69667;52.136;5.424;2023-12-22T07:33:59;100387.81;;;6.53;100.00
76694;BME280;69667;52.136;5.424;2023-12-22T07:36:28;100386.94;;;6.53;100.00
76694;BME280;69667;52.136;5.424;2023-12-22T07:38:56;100381.41;;;6.56;100.00
76694;BME280;69667;52.136;5.424;2023-12-22T07:41:24;100384.00;;;6.57;100.00
76694;BME280;69667;52.136;5.424;2023-12-22T07:43:53;100377.44;;;6.61;100.00
76694;BME280;69667;52.136;5.424;2023-12-22T07:46:21;100383.25;;;6.68;100.00
76694;BME280;69667;52.136;5.424;2023-12-22T07:48:51;100382.31;;;6.69;100.00
76694;BME280;69667;52.136;5.424;2023-12-22T07:51:20;100384.03;;;6.70;100.00
76694;BME280;69667;52.136;5.424;2023-12-22T07:53:48;100386.03;;;6.66;100.00
76694;BME280;69667;52.136;5.424;2023-12-22T07:56:16;100376.78;;;6.58;100.00
76694;BME280;69667;52.136;5.424;2023-12-22T07:58:44;100371.84;;;6.52;100.00
76694;BME280;69667;52.136;5.424;2023-12-22T08:01:13;100379.13;;;6.50;100.00
76694;BME280;69667;52.136;5.424;2023-12-22T08:03:43;100393.50;;;6.49;100.00
76694;BME280;69667;52.136;5.424;2023-12-22T08:06:11;100406.13;;;6.47;100.00
76694;BME280;69667;52.136;5.424;2023-12-22T08:08:41;100399.06;;;6.46;100.00
76694;BME280;69667;52.136;5.424;2023-12-22T08:11:10;100403.25;;;6.50;100.00
76694;BME280;69667;52.136;5.424;2023-12-22T08:13:38;100390.59;;;6.52;100.00
76694;BME280;69667;52.136;5.424;2023-12-22T08:16:06;100390.41;;;6.55;100.00
76694;BME280;69667;52.136;5.424;2023-12-22T08:18:34;100390.84;;;6.61;100.00
76694;BME280;69667;52.136;5.424;2023-12-22T08:21:03;100385.94;;;6.68;100.00
76694;BME280;69667;52.136;5.424;2023-12-22T08:23:47;100374.81;;;6.74;100.00
76694;BME280;69667;52.136;5.424;2023-12-22T08:26:22;100379.09;;;6.76;100.00
76694;BME280;69667;52.136;5.424;2023-12-22T08:28:50;100368.19;;;6.79;100.00
76694;BME280;69667;52.136;5.424;2023-12-22T08:31:18;100354.34;;;6.85;100.00
76694;BME280;69667;52.136;5.424;2023-12-22T08:33:47;100355.13;;;6.87;100.00
76694;BME280;69667;52.136;5.424;2023-12-22T08:36:15;100347.72;;;6.91;100.00
76694;BME280;69667;52.136;5.424;2023-12-22T08:38:44;100360.81;;;6.95;100.00
76694;BME280;69667;52.136;5.424;2023-12-22T08:41:13;100342.03;;;6.95;100.00
76694;BME280;69667;52.136;5.424;2023-12-22T08:43:41;100339.34;;;6.95;100.00
76694;BME280;69667;52.136;5.424;2023-12-22T08:46:10;100346.31;;;6.98;100.00
76694;BME280;69667;52.136;5.424;2023-12-22T08:48:39;100338.09;;;7.01;100.00
76694;BME280;69667;52.136;5.424;2023-12-22T08:51:07;100343.13;;;7.05;100.00
76694;BME280;69667;52.136;5.424;2023-12-22T08:53:36;100328.63;;;7.08;100.00
76694;BME280;69667;52.136;5.424;2023-12-22T08:56:04;100340.75;;;7.13;100.00
76694;BME280;69667;52.136;5.424;2023-12-22T08:58:35;100334.22;;;7.17;100.00
76694;BME280;69667;52.136;5.424;2023-12-22T09:01:03;100340.25;;;7.21;100.00
76694;BME280;69667;52.136;5.424;2023-12-22T09:03:33;100330.91;;;7.26;100.00
76694;BME280;69667;52.136;5.424;2023-12-22T09:06:03;100342.06;;;7.33;100.00
76694;BME280;69667;52.136;5.424;2023-12-22T09:08:31;100340.44;;;7.43;100.00
76694;BME280;69667;52.136;5.424;2023-12-22T09:10:59;100339.16;;;7.48;100.00
76694;BME280;69667;52.136;5.424;2023-12-22T09:13:28;100352.38;;;7.51;100.00
76694;BME280;69667;52.136;5.424;2023-12-22T09:15:57;100343.47;;;7.51;100.00
76694;BME280;69667;52.136;5.424;2023-12-22T09:18:25;100347.75;;;7.53;100.00
76694;BME280;69667;52.136;5.424;2023-12-22T09:20:53;100339.69;;;7.53;100.00
76694;BME280;69667;52.136;5.424;2023-12-22T09:23:21;100362.88;;;7.54;100.00
76694;BME280;69667;52.136;5.424;2023-12-22T09:25:50;100366.78;;;7.50;100.00
76694;BME280;69667;52.136;5.424;2023-12-22T09:28:18;100350.53;;;7.39;100.00
76694;BME280;69667;52.136;5.424;2023-12-22T09:30:47;100359.66;;;7.24;100.00
76694;BME280;69667;52.136;5.424;2023-12-22T09:33:15;100356.97;;;7.12;100.00
76694;BME280;69667;52.136;5.424;2023-12-22T09:35:43;100371.00;;;7.03;100.00
76694;BME280;69667;52.136;5.424;2023-12-22T09:38:12;100359.28;;;6.91;100.00
76694;BME280;69667;52.136;5.424;2023-12-22T09:40:40;100358.00;;;6.84;100.00
76694;BME280;69667;52.136;5.424;2023-12-22T09:43:11;100354.47;;;6.84;100.00
76694;BME280;69667;52.136;5.424;2023-12-22T09:45:43;100360.78;;;6.83;100.00
76694;BME280;69667;52.136;5.424;2023-12-22T09:48:12;100353.91;;;6.79;100.00
76694;BME280;69667;52.136;5.424;2023-12-22T09:50:44;100345.66;;;6.82;100.00
76694;BME280;69667;52.136;5.424;2023-12-22T09:53:13;100332.13;;;6.83;100.00
76694;BME280;69667;52.136;5.424;2023-12-22T09:55:45;100355.22;;;6.86;100.00
76694;BME280;69667;52.136;5.424;2023-12-22T09:58:14;100355.66;;;6.92;100.00
76694;BME280;69667;52.136;5.424;2023-12-22T10:00:44;100341.81;;;6.98;100.00
76694;BME280;69667;52.136;5.424;2023-12-22T10:03:12;100334.84;;;7.08;100.00
76694;BME280;69667;52.136;5.424;2023-12-22T10:05:40;100342.94;;;7.21;100.00
76694;BME280;69667;52.136;5.424;2023-12-22T10:08:11;100349.81;;;7.37;100.00
76694;BME280;69667;52.136;5.424;2023-12-22T10:10:40;100339.91;;;7.50;100.00
76694;BME280;69667;52.136;5.424;2023-12-22T10:13:11;100357.97;;;7.61;100.00
76694;BME280;69667;52.136;5.424;2023-12-22T10:15:39;100353.84;;;7.68;100.00
76694;BME280;69667;52.136;5.424;2023-12-22T10:18:09;100354.91;;;7.78;100.00
76694;BME280;69667;52.136;5.424;2023-12-22T10:20:37;100345.56;;;7.84;100.00
76694;BME280;69667;52.136;5.424;2023-12-22T10:23:05;100346.97;;;7.89;100.00
76694;BME280;69667;52.136;5.424;2023-12-22T10:25:34;100338.91;;;7.89;100.00
76694;BME280;69667;52.136;5.424;2023-12-22T10:28:02;100349.66;;;7.89;100.00
76694;BME280;69667;52.136;5.424;2023-12-22T10:30:32;100354.03;;;7.90;100.00
76694;BME280;69667;52.136;5.424;2023-12-22T10:33:04;100359.31;;;7.92;100.00
76694;BME280;69667;52.136;5.424;2023-12-22T10:35:32;100345.97;;;7.90;100.00
76694;BME280;69667;52.136;5.424;2023-12-22T10:38:00;100338.69;;;7.92;100.00
76694;BME280;69667;52.136;5.424;2023-12-22T10:40:30;100369.81;;;7.95;100.00
76694;BME280;69667;52.136;5.424;2023-12-22T10:42:59;100370.34;;;8.00;100.00
76694;BME280;69667;52.136;5.424;2023-12-22T10:45:28;100358.75;;;7.99;100.00
76694;BME280;69667;52.136;5.424;2023-12-22T10:47:58;100355.84;;;8.02;100.00
76694;BME280;69667;52.136;5.424;2023-12-22T10:50:28;100364.44;;;8.07;100.00
76694;BME280;69667;52.136;5.424;2023-12-22T10:52:56;100356.78;;;8.14;100.00
76694;BME280;69667;52.136;5.424;2023-12-22T10:55:24;100355.38;;;8.21;100.00
76694;BME280;69667;52.136;5.424;2023-12-22T10:57:53;100358.50;;;8.27;100.00
76694;BME280;69667;52.136;5.424;2023-12-22T11:00:22;100349.44;;;8.28;100.00
76694;BME280;69667;52.136;5.424;2023-12-22T11:02:59;100348.50;;;8.29;100.00
76694;BME280;69667;52.136;5.424;2023-12-22T11:05:29;100337.84;;;8.28;100.00
76694;BME280;69667;52.136;5.424;2023-12-22T11:08:00;100343.13;;;8.29;100.00
76694;BME280;69667;52.136;5.424;2023-12-22T11:10:31;100332.75;;;8.36;100.00
76694;BME280;69667;52.136;5.424;2023-12-22T11:13:00;100340.38;;;8.42;100.00
76694;BME280;69667;52.136;5.424;2023-12-22T11:15:30;100330.25;;;8.45;100.00
76694;BME280;69667;52.136;5.424;2023-12-22T11:18:01;100338.06;;;8.48;100.00
76694;BME280;69667;52.136;5.424;2023-12-22T11:20:30;100331.75;;;8.49;100.00
76694;BME280;69667;52.136;5.424;2023-12-22T11:23:00;100339.22;;;8.57;100.00
76694;BME280;69667;52.136;5.424;2023-12-22T11:25:30;100340.91;;;8.58;100.00
76694;BME280;69667;52.136;5.424;2023-12-22T11:28:00;100333.97;;;8.55;100.00
76694;BME280;69667;52.136;5.424;2023-12-22T11:30:30;100322.06;;;8.47;100.00
76694;BME280;69667;52.136;5.424;2023-12-22T11:32:59;100318.84;;;8.42;100.00
76694;BME280;69667;52.136;5.424;2023-12-22T11:35:29;100328.41;;;8.46;100.00
76694;BME280;69667;52.136;5.424;2023-12-22T11:38:01;100329.25;;;8.46;100.00
76694;BME280;69667;52.136;5.424;2023-12-22T11:40:32;100326.00;;;8.54;100.00
76694;BME280;69667;52.136;5.424;2023-12-22T11:43:01;100338.34;;;8.56;100.00
76694;BME280;69667;52.136;5.424;2023-12-22T11:45:30;100320.50;;;8.55;100.00
76694;BME280;69667;52.136;5.424;2023-12-22T11:48:08;100311.56;;;8.55;100.00
76694;BME280;69667;52.136;5.424;2023-12-22T11:50:38;100322.22;;;8.56;100.00
76694;BME280;69667;52.136;5.424;2023-12-22T11:53:22;100309.41;;;8.60;100.00
76694;BME280;69667;52.136;5.424;2023-12-22T11:58:43;100312.47;;;8.66;100.00
76694;BME280;69667;52.136;5.424;2023-12-22T12:01:21;100299.88;;;8.67;100.00
76694;BME280;69667;52.136;5.424;2023-12-22T12:03:53;100308.19;;;8.64;100.00
76694;BME280;69667;52.136;5.424;2023-12-22T12:08:55;100295.72;;;8.63;100.00
76694;BME280;69667;52.136;5.424;2023-12-22T12:11:25;100293.44;;;8.69;100.00
76694;BME280;69667;52.136;5.424;2023-12-22T12:14:14;100276.44;;;8.69;100.00
76694;BME280;69667;52.136;5.424;2023-12-22T12:16:43;100261.97;;;8.70;100.00
76694;BME280;69667;52.136;5.424;2023-12-22T12:19:12;100273.38;;;8.73;100.00
76694;BME280;69667;52.136;5.424;2023-12-22T12:21:40;100281.44;;;8.73;100.00
76694;BME280;69667;52.136;5.424;2023-12-22T12:24:09;100275.09;;;8.74;100.00
76694;BME280;69667;52.136;5.424;2023-12-22T12:26:37;100277.81;;;8.74;100.00
76694;BME280;69667;52.136;5.424;2023-12-22T12:29:06;100270.69;;;8.73;100.00
76694;BME280;69667;52.136;5.424;2023-12-22T12:31:37;100255.41;;;8.74;100.00
76694;BME280;69667;52.136;5.424;2023-12-22T12:34:06;100281.44;;;8.73;100.00
76694;BME280;69667;52.136;5.424;2023-12-22T12:36:35;100276.69;;;8.77;100.00
76694;BME280;69667;52.136;5.424;2023-12-22T12:39:08;100259.69;;;8.76;100.00
76694;BME280;69667;52.136;5.424;2023-12-22T12:41:40;100241.97;;;8.74;100.00
76694;BME280;69667;52.136;5.424;2023-12-22T12:44:11;100256.47;;;8.71;100.00
76694;BME280;69667;52.136;5.424;2023-12-22T12:46:40;100276.19;;;8.72;100.00
76694;BME280;69667;52.136;5.424;2023-12-22T12:49:10;100268.13;;;8.72;100.00
76694;BME280;69667;52.136;5.424;2023-12-22T12:51:44;100282.31;;;8.74;100.00
76694;BME280;69667;52.136;5.424;2023-12-22T12:54:13;100271.94;;;8.80;100.00
76694;BME280;69667;52.136;5.424;2023-12-22T12:56:44;100291.50;;;8.82;100.00
76694;BME280;69667;52.136;5.424;2023-12-22T12:59:14;100286.97;;;8.83;100.00
76694;BME280;69667;52.136;5.424;2023-12-22T13:01:45;100291.41;;;8.84;100.00
76694;BME280;69667;52.136;5.424;2023-12-22T13:04:14;100273.63;;;8.81;100.00
76694;BME280;69667;52.136;5.424;2023-12-22T13:06:46;100291.75;;;8.79;100.00
76694;BME280;69667;52.136;5.424;2023-12-22T13:09:15;100286.47;;;8.78;100.00
76694;BME280;69667;52.136;5.424;2023-12-22T13:11:45;100285.00;;;8.74;100.00